Terminal Aerodrome Forecast
Issued by NWS

Home | Current Version | Previous Version | Text Only | Print | Product List | Glossary On
Versions: 1 2 3 4 5 6 7 8 9 10 11 12 13 14 15 16
000
FTUS42 KTBW 202323
TAFPIE
TAF
KPIE 202323Z 2100/2124 08007KT P6SM SCT050 SCT250
     FM210500 08008KT P6SM BKN050
     FM211200 09007KT P6SM VCSH SCT025 OVC050
     FM211600 12008KT P6SM VCSH SCT030 OVC050=

USA.gov is the U.S. government's official web portal to all federal, state and local government web resources and services.